Time;durP1;ratioP1;P1;durP2;ratioP2;P2;SDS_P1;SDS_P2;PMS_P1;PMS_P2;Temp;Humidity;BMP_temperature;BMP_pressure;BME280_temperature;BME280_humidity;BME280_pressure;Samples;Min_cycle;Max_cycle;Signal;HPM_P1;HPM_P2
2022/12/12 00:01:17;;;;;;;32.80;22.00;;;2.00;99.90;;;;;;5014803;28;20257;-78
2022/12/12 00:03:44;;;;;;;33.47;21.67;;;2.00;99.90;;;;;;5015742;28;20278;-79
2022/12/12 00:06:13;;;;;;;30.57;19.97;;;2.00;99.90;;;;;;5014418;28;20278;-78
2022/12/12 00:08:40;;;;;;;33.27;21.17;;;2.10;99.90;;;;;;5013199;28;20285;-79
2022/12/12 00:11:07;;;;;;;33.80;21.17;;;2.10;99.90;;;;;;5033328;28;20243;-79
2022/12/12 00:13:35;;;;;;;30.83;20.90;;;2.00;99.90;;;;;;5033429;28;20199;-79
2022/12/12 00:16:04;;;;;;;32.17;21.73;;;2.10;99.90;;;;;;5033359;28;20560;-79
2022/12/12 00:18:31;;;;;;;35.07;20.93;;;2.10;99.90;;;;;;5021954;28;20211;-78
2022/12/12 00:20:58;;;;;;;32.47;21.33;;;2.10;99.90;;;;;;5013084;28;20294;-77
2022/12/12 00:23:27;;;;;;;36.57;22.43;;;2.00;99.90;;;;;;5013557;28;20242;-78
2022/12/12 00:25:56;;;;;;;32.87;20.60;;;2.00;99.90;;;;;;5014158;28;20227;-79
2022/12/12 00:28:23;;;;;;;31.70;21.50;;;2.00;99.90;;;;;;5014512;28;20791;-78
2022/12/12 00:30:51;;;;;;;35.20;22.67;;;2.00;99.90;;;;;;5014622;28;20298;-79
2022/12/12 00:33:18;;;;;;;32.97;23.23;;;2.10;99.90;;;;;;5015232;28;20205;-77
2022/12/12 00:35:49;;;;;;;30.13;20.93;;;2.10;99.90;;;;;;5014852;28;20242;-79
2022/12/12 00:38:16;;;;;;;32.40;21.53;;;2.00;99.90;;;;;;5013989;28;20266;-78
2022/12/12 00:40:45;;;;;;;32.80;21.07;;;2.00;99.90;;;;;;5014111;28;20239;-78
2022/12/12 00:43:12;;;;;;;34.60;21.37;;;2.00;99.90;;;;;;5013761;28;20558;-80
2022/12/12 00:45:41;;;;;;;34.40;21.60;;;2.00;99.90;;;;;;5014509;28;20290;-79
2022/12/12 00:48:08;;;;;;;31.30;21.27;;;2.00;99.90;;;;;;5013668;28;20290;-79
2022/12/12 00:50:35;;;;;;;33.77;22.27;;;2.00;99.90;;;;;;5014283;28;20290;-79
2022/12/12 00:53:02;;;;;;;33.20;22.70;;;2.00;99.90;;;;;;5014923;28;20204;-78
2022/12/12 00:55:29;;;;;;;33.60;22.03;;;2.00;99.90;;;;;;5013428;28;20302;-78
2022/12/12 00:57:58;;;;;;;33.67;22.20;;;2.00;99.90;;;;;;5013911;28;20318;-79
2022/12/12 01:00:25;;;;;;;36.00;23.63;;;2.00;99.90;;;;;;5014366;28;20294;-78
2022/12/12 01:02:52;;;;;;;30.23;20.83;;;2.00;99.90;;;;;;5012918;28;20239;-77
2022/12/12 01:05:19;;;;;;;29.93;22.03;;;2.00;99.90;;;;;;5012838;28;20572;-79
2022/12/12 01:07:46;;;;;;;33.17;22.00;;;2.00;99.90;;;;;;5012923;28;20257;-76
2022/12/12 01:10:13;;;;;;;31.43;21.07;;;2.00;99.90;;;;;;5012289;28;20246;-76
2022/12/12 01:12:40;;;;;;;36.53;22.53;;;1.90;99.90;;;;;;5012836;28;20790;-77
2022/12/12 01:15:10;;;;;;;33.90;21.53;;;2.00;99.90;;;;;;5032165;28;20686;-76
2022/12/12 01:17:37;;;;;;;33.77;23.83;;;1.90;99.90;;;;;;5028366;28;20231;-77
2022/12/12 01:20:05;;;;;;;36.20;21.40;;;1.90;99.90;;;;;;5011921;28;20203;-77
2022/12/12 01:22:32;;;;;;;31.13;21.37;;;1.90;99.90;;;;;;5012814;28;20195;-76
2022/12/12 01:24:59;;;;;;;35.00;22.50;;;1.90;99.90;;;;;;5032120;28;20564;-78
2022/12/12 01:27:26;;;;;;;35.30;23.23;;;1.90;99.90;;;;;;5032830;28;20543;-78
2022/12/12 01:29:54;;;;;;;32.00;20.90;;;1.90;99.90;;;;;;5032864;28;20257;-77
2022/12/12 01:32:23;;;;;;;35.23;21.83;;;1.90;99.90;;;;;;5030625;28;20213;-78
2022/12/12 01:34:50;;;;;;;32.13;21.80;;;1.90;99.90;;;;;;5032568;28;20229;-78
2022/12/12 01:37:17;;;;;;;35.63;22.73;;;1.90;99.90;;;;;;5025821;28;20333;-78
2022/12/12 01:39:44;;;;;;;32.07;22.03;;;1.90;99.90;;;;;;5011996;28;20204;-77
2022/12/12 01:42:14;;;;;;;31.60;22.20;;;1.80;99.90;;;;;;5012505;28;20286;-77
2022/12/12 01:44:45;;;;;;;34.53;22.07;;;1.80;99.90;;;;;;5011721;28;20191;-77
2022/12/12 01:47:13;;;;;;;30.97;21.10;;;1.80;99.90;;;;;;5012825;28;20195;-79
2022/12/12 01:49:43;;;;;;;34.50;21.93;;;1.80;99.90;;;;;;5011820;28;20207;-78
2022/12/12 01:52:14;;;;;;;33.10;22.73;;;1.80;99.90;;;;;;5011774;28;20208;-79
2022/12/12 01:54:45;;;;;;;35.20;22.33;;;1.80;99.90;;;;;;5012708;28;20199;-79
2022/12/12 01:57:15;;;;;;;33.97;22.27;;;1.70;99.90;;;;;;5012457;28;20304;-78
2022/12/12 01:59:43;;;;;;;35.63;22.67;;;1.80;99.90;;;;;;5011531;28;20584;-78
2022/12/12 02:02:11;;;;;;;32.77;21.17;;;1.80;99.90;;;;;;5012160;28;20201;-78
2022/12/12 02:04:38;;;;;;;33.03;21.43;;;1.70;99.90;;;;;;5012635;28;20203;-78
2022/12/12 02:07:07;;;;;;;33.30;23.47;;;1.70;99.90;;;;;;5011075;28;20286;-78
2022/12/12 02:09:35;;;;;;;34.30;22.70;;;1.70;99.90;;;;;;5012025;28;20542;-79
2022/12/12 02:12:03;;;;;;;32.30;21.93;;;1.70;99.90;;;;;;5011859;28;20211;-78
2022/12/12 02:14:34;;;;;;;34.43;21.67;;;1.70;99.90;;;;;;5011163;28;20671;-78
2022/12/12 02:17:29;;;;;;;36.67;22.43;;;1.70;99.90;;;;;;5011610;28;20617;-78
2022/12/12 02:20:35;;;;;;;35.00;22.63;;;1.70;99.90;;;;;;5011522;28;20199;-78
2022/12/12 02:23:33;;;;;;;33.70;22.50;;;1.70;99.90;;;;;;5012020;28;20669;-79
2022/12/12 02:26:25;;;;;;;36.03;22.43;;;1.70;99.90;;;;;;5011613;28;20227;-78
2022/12/12 02:29:36;;;;;;;34.03;22.10;;;1.70;99.90;;;;;;5011097;28;20266;-77
2022/12/12 02:32:08;;;;;;;33.73;20.87;;;1.70;99.90;;;;;;5013684;28;20286;-78
2022/12/12 02:34:45;;;;;;;35.63;22.50;;;1.70;99.90;;;;;;5015394;28;20253;-78
2022/12/12 02:37:20;;;;;;;33.97;22.83;;;1.70;99.90;;;;;;5027061;28;20721;-79
2022/12/12 02:39:52;;;;;;;35.57;21.50;;;1.70;99.90;;;;;;5035514;28;20289;-78
2022/12/12 02:42:23;;;;;;;33.57;21.17;;;1.70;99.90;;;;;;5022712;28;20247;-78
2022/12/12 02:44:56;;;;;;;31.13;21.47;;;1.70;99.90;;;;;;5015996;28;20249;-78
2022/12/12 02:47:29;;;;;;;31.17;20.37;;;1.70;99.90;;;;;;5015138;28;20652;-78
2022/12/12 02:50:02;;;;;;;35.57;22.53;;;1.70;99.90;;;;;;5014730;28;20290;-78
2022/12/12 02:52:29;;;;;;;35.70;23.23;;;1.70;99.90;;;;;;5015440;28;20199;-78
2022/12/12 02:54:56;;;;;;;32.77;21.77;;;1.70;99.90;;;;;;5014944;28;20249;-79
2022/12/12 02:57:25;;;;;;;33.80;21.00;;;1.70;99.90;;;;;;5015546;28;20309;-79
2022/12/12 02:59:56;;;;;;;31.47;20.87;;;1.70;99.90;;;;;;5015513;28;20199;-78
2022/12/12 03:02:51;;;;;;;32.87;22.27;;;1.70;99.90;;;;;;5015136;28;20207;-78
2022/12/12 03:08:38;;;;;;;34.30;23.83;;;1.70;99.90;;;;;;5015406;28;20182;-78
2022/12/12 03:11:08;;;;;;;35.93;22.83;;;1.70;99.90;;;;;;5014259;28;20325;-79
2022/12/12 03:13:44;;;;;;;35.60;22.23;;;1.70;99.90;;;;;;5014930;28;20241;-79
2022/12/12 03:16:22;;;;;;;33.27;22.17;;;1.80;99.90;;;;;;5014293;28;20197;-79
2022/12/12 03:18:58;;;;;;;33.93;22.20;;;1.70;99.90;;;;;;5015064;28;20365;-78
2022/12/12 03:21:31;;;;;;;33.00;21.13;;;1.70;99.90;;;;;;5014795;28;20950;-79
2022/12/12 03:24:04;;;;;;;32.17;22.03;;;1.70;99.90;;;;;;5014618;28;20278;-77
2022/12/12 03:26:35;;;;;;;35.30;23.23;;;1.80;99.90;;;;;;5015048;28;20616;-78
2022/12/12 03:29:07;;;;;;;33.53;22.67;;;1.80;99.90;;;;;;5014840;28;20241;-79
2022/12/12 03:31:40;;;;;;;33.97;22.17;;;1.80;99.90;;;;;;5014210;28;20199;-79
2022/12/12 03:34:13;;;;;;;36.90;22.83;;;1.80;99.90;;;;;;5014664;28;20203;-79
2022/12/12 03:36:44;;;;;;;36.47;21.70;;;1.80;99.90;;;;;;5014712;28;20233;-78
2022/12/12 03:39:19;;;;;;;36.40;23.67;;;1.80;99.90;;;;;;5014332;28;20278;-78
2022/12/12 03:41:51;;;;;;;39.07;24.20;;;1.80;99.90;;;;;;5014605;28;20293;-79
2022/12/12 03:44:23;;;;;;;38.43;24.50;;;1.80;99.90;;;;;;5012285;28;20223;-78
2022/12/12 03:46:54;;;;;;;40.20;24.53;;;1.80;99.90;;;;;;5014399;28;20592;-78
2022/12/12 03:49:28;;;;;;;35.40;24.03;;;1.80;99.90;;;;;;5014329;28;20246;-79
2022/12/12 03:51:59;;;;;;;39.33;24.67;;;1.80;99.90;;;;;;5013479;28;20261;-78
2022/12/12 03:54:29;;;;;;;36.17;23.03;;;1.80;99.90;;;;;;5014659;28;20239;-79
2022/12/12 03:57:01;;;;;;;37.00;23.60;;;1.80;99.90;;;;;;5014575;28;20281;-78
2022/12/12 03:59:32;;;;;;;38.47;24.13;;;1.80;99.90;;;;;;5013641;28;20514;-77
2022/12/12 04:02:04;;;;;;;37.03;23.30;;;1.80;99.90;;;;;;5014057;28;20199;-78
2022/12/12 04:04:38;;;;;;;36.50;24.30;;;1.80;99.90;;;;;;5014047;28;20283;-78
2022/12/12 04:07:13;;;;;;;37.73;24.23;;;1.80;99.90;;;;;;5013549;28;20281;-78
2022/12/12 04:15:46;;;;;;;41.83;24.70;;;1.80;99.90;;;;;;5014327;28;20187;-79
2022/12/12 04:18:20;;;;;;;39.20;23.67;;;1.70;99.90;;;;;;5023284;28;20234;-78
2022/12/12 04:23:54;;;;;;;34.50;22.40;;;1.70;99.90;;;;;;5027213;28;20293;-78
2022/12/12 04:26:40;;;;;;;38.27;24.00;;;1.70;99.90;;;;;;5013075;28;20302;-79
2022/12/12 04:29:15;;;;;;;36.33;25.20;;;1.70;99.90;;;;;;5013318;28;20235;-78
2022/12/12 04:31:48;;;;;;;40.07;24.40;;;1.70;99.90;;;;;;5013920;28;20742;-79
2022/12/12 04:34:22;;;;;;;36.93;24.97;;;1.70;99.90;;;;;;5013216;28;20215;-79
2022/12/12 04:36:51;;;;;;;38.63;24.50;;;1.70;99.90;;;;;;5013558;28;20598;-78
2022/12/12 04:39:20;;;;;;;37.67;25.53;;;1.70;99.90;;;;;;5013353;28;20290;-78
2022/12/12 04:41:51;;;;;;;39.03;23.97;;;1.70;99.90;;;;;;5012941;28;20290;-78
2022/12/12 04:44:21;;;;;;;40.00;24.43;;;1.70;99.90;;;;;;5013118;28;20286;-79
2022/12/12 04:46:51;;;;;;;36.20;24.00;;;1.60;99.90;;;;;;5013116;28;20626;-78
2022/12/12 04:49:20;;;;;;;37.43;24.83;;;1.60;99.90;;;;;;5013092;28;20219;-78
2022/12/12 04:51:52;;;;;;;40.37;24.97;;;1.60;99.90;;;;;;5013273;28;20509;-78
2022/12/12 04:54:24;;;;;;;38.27;24.70;;;1.60;99.90;;;;;;5013095;28;20213;-79
2022/12/12 04:56:54;;;;;;;40.00;25.23;;;1.50;99.90;;;;;;5013166;28;20280;-79
2022/12/12 04:59:21;;;;;;;37.73;24.57;;;1.50;99.90;;;;;;5013449;28;20542;-78
2022/12/12 05:01:55;;;;;;;42.27;25.13;;;1.50;99.90;;;;;;5012465;28;20314;-78
2022/12/12 05:04:27;;;;;;;42.20;25.80;;;1.40;99.90;;;;;;5013169;28;20414;-79
2022/12/12 05:07:00;;;;;;;39.30;24.13;;;1.40;99.90;;;;;;5012916;28;20780;-82
2022/12/12 05:09:28;;;;;;;37.13;24.50;;;1.40;99.90;;;;;;5012301;28;20342;-78
2022/12/12 05:11:54;;;;;;;41.00;25.80;;;1.40;99.90;;;;;;5012937;28;20278;-79
2022/12/12 05:14:21;;;;;;;39.40;25.47;;;1.40;99.90;;;;;;5012613;28;20314;-77
2022/12/12 05:16:52;;;;;;;38.63;24.47;;;1.40;99.90;;;;;;5011924;28;20670;-79
2022/12/12 05:19:19;;;;;;;35.87;23.83;;;1.40;99.90;;;;;;5012925;28;20590;-79
2022/12/12 05:21:46;;;;;;;36.63;23.80;;;1.50;99.90;;;;;;5012536;28;20289;-78
2022/12/12 05:24:14;;;;;;;41.07;24.83;;;1.50;99.90;;;;;;5012194;28;20207;-78
2022/12/12 05:26:41;;;;;;;39.93;26.50;;;1.50;99.90;;;;;;5012903;28;20225;-78
2022/12/12 05:29:08;;;;;;;34.67;23.80;;;1.50;99.90;;;;;;5012354;28;20294;-79
2022/12/12 05:31:35;;;;;;;37.27;23.60;;;1.50;99.90;;;;;;5012330;28;20431;-79
2022/12/12 05:34:03;;;;;;;42.93;25.77;;;1.50;99.90;;;;;;5012945;28;20562;-79
2022/12/12 05:36:30;;;;;;;37.50;24.83;;;1.50;99.90;;;;;;5012416;28;20209;-79
2022/12/12 05:38:57;;;;;;;38.47;25.57;;;1.50;99.90;;;;;;5011551;28;20646;-78
2022/12/12 05:41:25;;;;;;;39.77;25.03;;;1.50;99.90;;;;;;5012166;28;20207;-78
2022/12/12 05:43:52;;;;;;;41.27;27.40;;;1.50;99.90;;;;;;5011470;28;20606;-78
2022/12/12 05:46:19;;;;;;;40.47;26.57;;;1.50;99.90;;;;;;5012534;28;20302;-78
2022/12/12 05:48:49;;;;;;;40.50;26.37;;;1.50;99.90;;;;;;5012090;28;20608;-79
2022/12/12 05:51:16;;;;;;;40.00;25.73;;;1.50;99.90;;;;;;5011781;28;20215;-78
2022/12/12 05:53:44;;;;;;;40.20;26.57;;;1.50;99.90;;;;;;5012437;28;20229;-79
2022/12/12 05:56:12;;;;;;;41.67;25.13;;;1.50;99.90;;;;;;5012138;28;20203;-78
2022/12/12 05:58:40;;;;;;;40.37;25.67;;;1.50;99.90;;;;;;5011568;28;20273;-79
2022/12/12 06:01:08;;;;;;;37.67;24.90;;;1.50;99.90;;;;;;5012210;28;20290;-78
2022/12/12 06:03:35;;;;;;;40.10;26.17;;;1.50;99.90;;;;;;5012223;28;20533;-78
2022/12/12 06:06:02;;;;;;;43.60;26.53;;;1.50;99.90;;;;;;5010764;28;20287;-78
2022/12/12 06:08:29;;;;;;;44.47;26.27;;;1.50;99.90;;;;;;5012340;28;20199;-79
2022/12/12 06:10:56;;;;;;;39.60;25.37;;;1.40;99.90;;;;;;5011962;28;20334;-78
2022/12/12 06:13:23;;;;;;;42.60;27.30;;;1.40;99.90;;;;;;5011545;28;20211;-79
2022/12/12 06:15:51;;;;;;;40.27;26.17;;;1.50;99.90;;;;;;5012072;28;20242;-78
2022/12/12 06:18:19;;;;;;;40.90;26.27;;;1.40;99.90;;;;;;5012033;28;20223;-79
2022/12/12 06:20:46;;;;;;;42.53;25.80;;;1.40;99.90;;;;;;5010839;28;20215;-78
2022/12/12 06:23:13;;;;;;;45.53;27.70;;;1.40;99.90;;;;;;5011923;28;20207;-78
2022/12/12 06:25:40;;;;;;;41.57;26.03;;;1.30;99.90;;;;;;5012168;28;20584;-78
2022/12/12 06:28:07;;;;;;;45.73;26.43;;;1.30;99.90;;;;;;5010917;28;20199;-79
2022/12/12 06:30:33;;;;;;;39.70;25.40;;;1.20;99.90;;;;;;5011713;28;20234;-78
2022/12/12 06:33:02;;;;;;;38.77;25.40;;;1.20;99.90;;;;;;5010561;28;20290;-79
2022/12/12 06:35:29;;;;;;;43.37;26.73;;;1.20;99.90;;;;;;5011786;28;20322;-78
2022/12/12 06:37:56;;;;;;;43.17;25.70;;;1.10;99.90;;;;;;5011717;28;20219;-78
2022/12/12 06:40:23;;;;;;;41.77;25.20;;;1.10;99.90;;;;;;5011077;28;20206;-78
2022/12/12 06:42:49;;;;;;;44.03;27.83;;;1.00;99.90;;;;;;5011675;28;20306;-79
2022/12/12 06:45:17;;;;;;;44.77;25.67;;;1.00;99.90;;;;;;5011264;28;20207;-78
2022/12/12 06:47:44;;;;;;;44.63;27.17;;;0.90;99.90;;;;;;5011059;28;20282;-77
2022/12/12 06:50:12;;;;;;;44.20;26.70;;;0.90;99.90;;;;;;5011974;28;20275;-78
2022/12/12 06:52:39;;;;;;;46.17;27.47;;;0.90;99.90;;;;;;5012030;28;20313;-78
2022/12/12 06:55:06;;;;;;;41.50;26.47;;;0.80;99.90;;;;;;5011560;28;20289;-78
2022/12/12 06:57:33;;;;;;;44.00;27.03;;;0.80;99.90;;;;;;5011601;28;20199;-79
2022/12/12 07:00:00;;;;;;;43.63;27.27;;;0.80;99.90;;;;;;5011283;28;20291;-77
2022/12/12 07:02:27;;;;;;;45.07;26.30;;;0.70;99.90;;;;;;5011131;28;20294;-77
2022/12/12 07:04:55;;;;;;;45.20;27.70;;;0.70;99.90;;;;;;5012315;28;20246;-77
2022/12/12 07:07:23;;;;;;;40.63;25.73;;;0.60;99.90;;;;;;5011554;28;20207;-76
2022/12/12 07:09:50;;;;;;;46.07;28.17;;;0.60;99.90;;;;;;5011081;28;20253;-77
2022/12/12 07:12:17;;;;;;;42.00;26.40;;;0.50;99.90;;;;;;5011229;28;20215;-79
2022/12/12 07:14:44;;;;;;;44.53;26.73;;;0.50;99.90;;;;;;5011361;28;20290;-79
2022/12/12 07:17:11;;;;;;;45.57;26.77;;;0.50;99.90;;;;;;5011136;28;20290;-79
2022/12/12 07:19:37;;;;;;;55.33;28.87;;;0.50;99.90;;;;;;5015413;28;20219;-78
2022/12/12 07:22:04;;;;;;;45.80;26.33;;;0.50;99.90;;;;;;5014716;28;20290;-78
2022/12/12 07:24:33;;;;;;;42.90;26.07;;;0.50;99.90;;;;;;5014792;28;20298;-79
2022/12/12 07:27:00;;;;;;;45.30;26.90;;;0.50;99.90;;;;;;5015139;28;20223;-78
2022/12/12 07:29:27;;;;;;;52.80;29.10;;;0.40;99.90;;;;;;5014137;28;20318;-79
2022/12/12 07:31:54;;;;;;;46.10;27.90;;;0.40;99.90;;;;;;5015066;28;20203;-78
2022/12/12 07:34:21;;;;;;;44.90;27.30;;;0.40;99.90;;;;;;5014373;28;20217;-78
2022/12/12 07:36:48;;;;;;;45.00;27.37;;;0.40;99.90;;;;;;5013754;28;20231;-78
2022/12/12 07:39:15;;;;;;;47.97;28.63;;;0.30;99.90;;;;;;5014788;28;20581;-79
2022/12/12 07:41:43;;;;;;;50.23;27.17;;;0.30;99.90;;;;;;5014701;28;20203;-78
2022/12/12 07:44:10;;;;;;;48.67;27.33;;;0.30;99.90;;;;;;5013845;28;20210;-79
2022/12/12 07:46:37;;;;;;;46.33;27.40;;;0.30;99.90;;;;;;5014722;28;20210;-79
2022/12/12 07:49:04;;;;;;;49.60;27.90;;;0.30;99.90;;;;;;5014291;28;20290;-79
2022/12/12 07:51:31;;;;;;;40.70;25.30;;;0.30;99.90;;;;;;5014001;28;20199;-78
2022/12/12 07:53:58;;;;;;;46.40;28.57;;;0.20;99.90;;;;;;5014393;28;20298;-79
2022/12/12 07:56:25;;;;;;;48.90;28.13;;;0.20;99.90;;;;;;5014188;28;20206;-78
2022/12/12 07:58:54;;;;;;;46.50;27.70;;;0.20;99.90;;;;;;5013424;28;20653;-79
2022/12/12 08:01:23;;;;;;;47.97;27.50;;;0.20;99.90;;;;;;5014375;28;20205;-79
2022/12/12 08:03:50;;;;;;;48.87;27.90;;;0.20;99.90;;;;;;5014101;28;20214;-79
2022/12/12 08:06:19;;;;;;;50.50;28.17;;;0.20;99.90;;;;;;5013459;28;20215;-79
2022/12/12 08:08:47;;;;;;;55.97;29.73;;;0.20;99.90;;;;;;5014082;28;20278;-80
2022/12/12 08:11:16;;;;;;;45.63;27.77;;;0.20;99.90;;;;;;5033375;28;20461;-78
2022/12/12 08:13:43;;;;;;;50.07;28.20;;;0.10;99.90;;;;;;5033643;28;20207;-79
2022/12/12 08:16:16;;;;;;;51.77;28.50;;;0.20;99.90;;;;;;5017737;28;20252;-79
2022/12/12 08:18:43;;;;;;;53.47;29.03;;;0.10;99.90;;;;;;5013573;28;20208;-79
2022/12/12 08:21:11;;;;;;;51.97;29.80;;;0.20;99.90;;;;;;5013947;28;20203;-79
2022/12/12 08:23:38;;;;;;;55.13;29.53;;;0.20;99.90;;;;;;5014118;28;20211;-79
2022/12/12 08:26:07;;;;;;;51.40;28.50;;;0.20;99.90;;;;;;5013180;28;20282;-79
2022/12/12 08:28:35;;;;;;;48.93;28.13;;;0.10;99.90;;;;;;5014009;28;20211;-79
2022/12/12 08:31:02;;;;;;;53.70;29.60;;;0.20;99.90;;;;;;5013657;28;20897;-79
2022/12/12 08:33:30;;;;;;;50.83;27.27;;;0.20;99.90;;;;;;5013254;28;20210;-78
2022/12/12 08:35:57;;;;;;;52.27;29.27;;;0.10;99.90;;;;;;5013510;28;20425;-80
2022/12/12 08:38:24;;;;;;;46.93;29.20;;;0.10;99.90;;;;;;5023737;28;20527;-80
2022/12/12 08:40:52;;;;;;;59.20;30.40;;;0.10;99.90;;;;;;5032526;28;20235;-79
2022/12/12 08:43:18;;;;;;;55.50;30.43;;;0.10;99.90;;;;;;5033044;28;20333;-79
2022/12/12 08:45:47;;;;;;;53.07;28.70;;;0.10;99.90;;;;;;5027273;28;20211;-79
2022/12/12 08:48:14;;;;;;;49.73;27.83;;;0.10;99.90;;;;;;5032415;28;20195;-79
2022/12/12 08:50:42;;;;;;;50.73;29.83;;;0.10;99.90;;;;;;5031337;28;20269;-78
2022/12/12 08:53:09;;;;;;;51.90;29.27;;;0.10;99.90;;;;;;5028343;28;20207;-76
2022/12/12 08:55:36;;;;;;;53.57;28.97;;;0.10;99.90;;;;;;5030847;28;20599;-79
2022/12/12 08:58:03;;;;;;;51.07;28.17;;;0.10;99.90;;;;;;5028817;28;20589;-78
2022/12/12 09:00:30;;;;;;;54.13;30.40;;;0.10;99.90;;;;;;5031058;28;20241;-80
2022/12/12 09:02:57;;;;;;;50.57;27.80;;;0.10;99.90;;;;;;5031650;28;20662;-80
2022/12/12 09:05:24;;;;;;;51.93;29.37;;;0.10;99.90;;;;;;5025885;28;20484;-79
2022/12/12 09:07:52;;;;;;;50.03;28.87;;;0.10;99.90;;;;;;5032183;28;20293;-78
2022/12/12 09:10:20;;;;;;;52.70;29.27;;;0.10;99.90;;;;;;5027733;28;20230;-79
2022/12/12 09:12:46;;;;;;;47.90;27.63;;;0.10;99.90;;;;;;5030314;28;20210;-79
2022/12/12 09:15:14;;;;;;;55.67;29.60;;;0.10;99.90;;;;;;5031857;28;20195;-79
2022/12/12 09:17:41;;;;;;;49.07;28.70;;;0.10;99.90;;;;;;5027731;28;20200;-80
2022/12/12 09:20:08;;;;;;;54.73;29.50;;;0.10;99.90;;;;;;5013003;28;20810;-79
2022/12/12 09:22:35;;;;;;;53.07;28.90;;;0.10;99.90;;;;;;5012301;28;20248;-79
2022/12/12 09:25:04;;;;;;;51.00;26.50;;;0.10;99.90;;;;;;5026825;28;20277;-79
2022/12/12 09:27:31;;;;;;;51.40;28.87;;;0.10;99.90;;;;;;5039413;28;20623;-79
2022/12/12 09:29:58;;;;;;;48.10;29.37;;;0.10;99.90;;;;;;5032863;28;20232;-80
2022/12/12 09:32:25;;;;;;;45.70;26.23;;;0.10;99.90;;;;;;5027379;28;20296;-79
2022/12/12 09:34:52;;;;;;;46.63;28.67;;;0.10;99.90;;;;;;5012994;28;20199;-79
2022/12/12 09:37:19;;;;;;;46.00;27.93;;;0.20;99.90;;;;;;5012003;28;20616;-79
2022/12/12 09:39:46;;;;;;;50.43;27.37;;;0.20;99.90;;;;;;5012680;28;20246;-80
2022/12/12 09:42:20;;;;;;;49.73;27.57;;;0.20;99.90;;;;;;5010138;28;20282;-79
2022/12/12 09:44:48;;;;;;;53.93;29.33;;;0.20;99.90;;;;;;5010935;28;20392;-79
2022/12/12 09:47:20;;;;;;;48.40;27.70;;;0.20;99.90;;;;;;5011685;28;20778;-79
2022/12/12 09:49:49;;;;;;;52.27;28.00;;;0.20;99.90;;;;;;5011698;28;20202;-79
2022/12/12 09:52:18;;;;;;;46.60;26.23;;;0.20;99.90;;;;;;5011856;28;20235;-79
2022/12/12 09:54:45;;;;;;;50.37;26.33;;;0.20;99.90;;;;;;5012283;28;20284;-79
2022/12/12 09:57:26;;;;;;;46.33;26.97;;;0.20;99.90;;;;;;5011105;28;20203;-79
2022/12/12 10:00:01;;;;;;;49.50;28.23;;;0.30;99.90;;;;;;5012335;28;20314;-79
2022/12/12 10:02:44;;;;;;;47.40;26.33;;;0.30;99.90;;;;;;5019333;28;20515;-78
2022/12/12 10:05:21;;;;;;;50.73;27.00;;;0.30;99.90;;;;;;5022836;28;20628;-78
2022/12/12 10:07:58;;;;;;;48.43;27.83;;;0.30;99.90;;;;;;5018908;28;20293;-78
2022/12/12 10:10:28;;;;;;;45.77;25.60;;;0.30;99.90;;;;;;5038882;28;20280;-79
2022/12/12 10:12:58;;;;;;;48.47;27.03;;;0.40;99.90;;;;;;5036534;28;20202;-79
2022/12/12 10:15:31;;;;;;;48.73;26.93;;;0.40;99.90;;;;;;5042782;28;20214;-80
2022/12/12 10:18:00;;;;;;;44.50;26.00;;;0.40;99.90;;;;;;5037229;28;20843;-78
2022/12/12 10:20:30;;;;;;;46.70;26.83;;;0.40;99.90;;;;;;5041499;28;20222;-79
2022/12/12 10:23:01;;;;;;;44.33;25.77;;;0.40;99.90;;;;;;5042340;28;20216;-79
2022/12/12 10:25:41;;;;;;;42.63;25.57;;;0.40;99.90;;;;;;5030343;28;20305;-79
2022/12/12 10:28:12;;;;;;;41.63;24.17;;;0.40;99.90;;;;;;5030637;28;20671;-80
2022/12/12 10:30:55;;;;;;;41.80;23.80;;;0.50;99.90;;;;;;5023934;28;20222;-79
2022/12/12 10:33:31;;;;;;;37.53;23.67;;;0.50;99.90;;;;;;5021570;28;20735;-79
2022/12/12 10:36:05;;;;;;;44.87;25.70;;;0.50;99.90;;;;;;5030938;28;20216;-79
2022/12/12 10:39:00;;;;;;;45.27;25.07;;;0.50;99.90;;;;;;5030703;28;20206;-78
2022/12/12 10:41:36;;;;;;;36.27;22.80;;;0.50;99.90;;;;;;5029807;28;20763;-79
2022/12/12 10:44:12;;;;;;;44.53;25.27;;;0.50;99.90;;;;;;5033525;28;20293;-79
2022/12/12 10:46:42;;;;;;;39.50;23.47;;;0.50;99.90;;;;;;5035525;28;20220;-79
2022/12/12 10:49:15;;;;;;;43.43;23.27;;;0.60;99.90;;;;;;5026366;28;20504;-79
2022/12/12 10:51:44;;;;;;;40.73;23.70;;;0.60;99.90;;;;;;5010561;28;20221;-79
2022/12/12 10:54:18;;;;;;;35.07;22.33;;;0.60;99.90;;;;;;5029486;28;20528;-79
2022/12/12 10:57:06;;;;;;;41.57;22.97;;;0.70;99.90;;;;;;5034274;28;20590;-79
2022/12/12 10:59:42;;;;;;;37.33;22.40;;;0.60;99.90;;;;;;5032301;28;20222;-78
2022/12/12 11:02:26;;;;;;;38.47;22.37;;;0.70;99.90;;;;;;5031761;28;20296;-79
2022/12/12 11:05:06;;;;;;;36.50;21.37;;;0.70;99.90;;;;;;5030167;28;20210;-79
2022/12/12 11:07:37;;;;;;;42.23;23.83;;;0.70;99.90;;;;;;5028597;28;20353;-79
2022/12/12 11:10:20;;;;;;;36.23;21.30;;;0.70;99.90;;;;;;5032985;28;20596;-79
2022/12/12 11:12:54;;;;;;;41.47;23.80;;;0.70;99.90;;;;;;5034417;28;20230;-78
2022/12/12 11:15:28;;;;;;;41.27;23.47;;;0.80;99.90;;;;;;5040059;28;20207;-79
2022/12/12 11:17:57;;;;;;;39.90;23.90;;;0.80;99.90;;;;;;5033344;28;20283;-79
2022/12/12 11:20:24;;;;;;;38.00;22.83;;;0.90;99.90;;;;;;5034114;28;20774;-79
2022/12/12 11:22:55;;;;;;;42.77;24.40;;;0.90;99.90;;;;;;5018434;28;20306;-78
2022/12/12 11:25:27;;;;;;;38.53;22.10;;;0.90;99.90;;;;;;5031840;28;20241;-79
2022/12/12 11:27:55;;;;;;;37.33;22.63;;;0.90;99.90;;;;;;5017846;28;20230;-79
2022/12/12 11:30:31;;;;;;;38.30;22.47;;;0.90;99.90;;;;;;5023137;28;20203;-79
2022/12/12 11:32:58;;;;;;;37.07;22.43;;;1.00;99.90;;;;;;5020358;28;20301;-79
2022/12/12 11:35:33;;;;;;;37.47;22.93;;;1.00;99.90;;;;;;5032745;28;20726;-80
2022/12/12 11:38:02;;;;;;;36.43;22.50;;;1.00;99.90;;;;;;5031777;28;20240;-77
2022/12/12 11:40:33;;;;;;;35.43;19.97;;;1.00;99.90;;;;;;5043298;28;20665;-78
2022/12/12 11:43:18;;;;;;;36.23;22.70;;;1.10;99.90;;;;;;5032963;28;20295;-79
2022/12/12 11:46:01;;;;;;;33.13;19.53;;;1.10;99.90;;;;;;5025276;28;20217;-78
2022/12/12 11:48:34;;;;;;;34.47;20.57;;;1.20;99.90;;;;;;5021492;28;20209;-78
2022/12/12 11:51:02;;;;;;;31.37;19.07;;;1.20;99.90;;;;;;5033101;28;20202;-78
2022/12/12 11:53:29;;;;;;;32.83;19.50;;;1.20;99.90;;;;;;5017063;28;20536;-77
2022/12/12 11:56:11;;;;;;;33.13;21.00;;;1.20;99.90;;;;;;5013745;28;20211;-77
2022/12/12 11:58:45;;;;;;;33.13;19.80;;;1.30;99.90;;;;;;5021268;28;20533;-79
2022/12/12 12:01:23;;;;;;;30.53;20.23;;;1.30;99.90;;;;;;5033468;28;20677;-77
2022/12/12 12:04:11;;;;;;;34.30;19.87;;;1.30;99.90;;;;;;5025524;28;20224;-78
2022/12/12 12:06:52;;;;;;;35.73;18.90;;;1.30;99.90;;;;;;5043838;28;20244;-78
2022/12/12 12:09:28;;;;;;;31.27;19.40;;;1.30;99.90;;;;;;5027250;28;20294;-78
2022/12/12 12:12:04;;;;;;;33.07;19.03;;;1.30;99.90;;;;;;5017388;28;20504;-77
2022/12/12 12:15:07;;;;;;;29.50;17.40;;;1.40;99.90;;;;;;5035731;28;20487;-78
2022/12/12 12:17:56;;;;;;;29.87;19.97;;;1.40;99.90;;;;;;5017098;28;20607;-77
2022/12/12 12:20:41;;;;;;;33.47;18.97;;;1.40;99.90;;;;;;5013563;28;20231;-79
2022/12/12 12:23:18;;;;;;;30.07;19.13;;;1.40;99.90;;;;;;5031651;28;20647;-79
2022/12/12 12:25:50;;;;;;;30.73;18.93;;;1.40;99.90;;;;;;5029378;28;20230;-80
2022/12/12 12:28:46;;;;;;;31.57;18.87;;;1.40;99.90;;;;;;5046833;28;20222;-79
2022/12/12 12:31:21;;;;;;;32.43;19.67;;;1.40;99.90;;;;;;5017091;28;20219;-79
2022/12/12 12:34:02;;;;;;;32.80;19.93;;;1.40;99.90;;;;;;5027198;28;20853;-79
2022/12/12 12:36:34;;;;;;;31.83;19.80;;;1.40;99.90;;;;;;5027881;28;20211;-79
2022/12/12 12:39:12;;;;;;;28.53;18.67;;;1.30;99.90;;;;;;5020354;28;20293;-78
2022/12/12 12:42:01;;;;;;;35.90;19.87;;;1.30;99.90;;;;;;5041139;28;20305;-79
2022/12/12 12:44:37;;;;;;;33.50;19.77;;;1.30;99.90;;;;;;5048172;28;20274;-80
2022/12/12 12:47:14;;;;;;;31.57;19.73;;;1.30;99.90;;;;;;5013328;28;20196;-79
2022/12/12 12:49:48;;;;;;;30.67;20.10;;;1.30;99.90;;;;;;5013161;28;20195;-79
2022/12/12 12:52:19;;;;;;;31.80;20.00;;;1.30;99.90;;;;;;5012950;28;20206;-78
2022/12/12 12:54:48;;;;;;;32.47;19.97;;;1.40;99.90;;;;;;5013405;28;20231;-79
2022/12/12 12:57:19;;;;;;;30.30;19.07;;;1.40;99.90;;;;;;5013760;28;20286;-79
2022/12/12 12:59:50;;;;;;;29.30;19.17;;;1.40;99.90;;;;;;5012631;28;20599;-80
2022/12/12 13:02:26;;;;;;;30.00;19.50;;;1.40;99.90;;;;;;5012849;28;20290;-79
2022/12/12 13:05:05;;;;;;;31.10;19.73;;;1.40;99.90;;;;;;5011994;28;20187;-79
2022/12/12 13:07:40;;;;;;;30.67;19.37;;;1.40;99.90;;;;;;5011455;28;20302;-79